Time;durP1;ratioP1;P1;durP2;ratioP2;P2;SDS_P1;SDS_P2;PMS_P1;PMS_P2;Temp;Humidity;BMP_temperature;BMP_pressure;BME280_temperature;BME280_humidity;BME280_pressure;Samples;Min_cycle;Max_cycle;Signal;HPM_P1;HPM_P2
2022/11/22 00:02:13;;;;;;;6.00;2.42;;;6.70;99.90;;;;;;5053810;28;20029;-74
2022/11/22 00:04:38;;;;;;;13.10;2.80;;;6.70;99.90;;;;;;5035990;28;20091;-74
2022/11/22 00:07:04;;;;;;;11.65;2.30;;;6.60;99.90;;;;;;5054276;28;20028;-74
2022/11/22 00:09:29;;;;;;;8.93;2.33;;;6.60;99.90;;;;;;5035730;28;20033;-74
2022/11/22 00:11:55;;;;;;;10.05;2.63;;;6.70;99.90;;;;;;5035856;28;20032;-74
2022/11/22 00:14:20;;;;;;;6.07;2.10;;;6.60;99.90;;;;;;5053498;28;20067;-74
2022/11/22 00:16:46;;;;;;;6.60;2.10;;;6.60;99.90;;;;;;5035745;28;20021;-74
2022/11/22 00:19:12;;;;;;;10.07;2.78;;;6.60;99.90;;;;;;5062592;22;20486;-74
2022/11/22 00:21:37;;;;;;;7.68;1.85;;;6.70;99.90;;;;;;5035615;28;20041;-74
2022/11/22 00:24:03;;;;;;;8.90;2.55;;;6.70;99.90;;;;;;5053544;28;20021;-74
2022/11/22 00:26:29;;;;;;;9.00;1.30;;;6.70;99.90;;;;;;5052207;28;20028;-74
2022/11/22 00:28:54;;;;;;;9.25;2.28;;;6.70;99.90;;;;;;5053561;28;20017;-74
2022/11/22 00:31:20;;;;;;;4.80;1.33;;;6.60;99.90;;;;;;5053493;28;20438;-75
2022/11/22 00:33:45;;;;;;;4.53;1.77;;;6.70;99.90;;;;;;5035338;28;20434;-74
2022/11/22 00:36:11;;;;;;;5.40;1.98;;;6.70;99.90;;;;;;5035451;28;20025;-74
2022/11/22 00:38:36;;;;;;;5.25;1.52;;;6.70;99.90;;;;;;5053903;28;20025;-74
2022/11/22 00:41:02;;;;;;;6.55;2.15;;;6.80;99.90;;;;;;5035380;28;20100;-74
2022/11/22 00:43:27;;;;;;;5.63;2.10;;;6.70;99.90;;;;;;5053230;28;20388;-74
2022/11/22 00:45:53;;;;;;;8.45;2.38;;;6.70;99.90;;;;;;5035565;28;20039;-74
2022/11/22 00:48:19;;;;;;;7.07;1.77;;;6.70;99.90;;;;;;5035422;28;20416;-74
2022/11/22 00:50:48;;;;;;;6.90;1.88;;;6.60;99.90;;;;;;5053889;28;20054;-74
2022/11/22 00:53:13;;;;;;;8.60;2.40;;;6.60;99.90;;;;;;5055455;28;20098;-74
2022/11/22 00:55:39;;;;;;;6.10;2.20;;;6.60;99.90;;;;;;5057525;28;20029;-74
2022/11/22 00:58:04;;;;;;;5.57;1.27;;;6.60;99.90;;;;;;5057362;28;20021;-74
2022/11/22 01:00:30;;;;;;;6.72;2.00;;;6.50;99.90;;;;;;5039276;28;20028;-74
2022/11/22 01:02:56;;;;;;;7.20;2.35;;;6.50;99.90;;;;;;5057288;28;20414;-74
2022/11/22 01:05:21;;;;;;;11.25;2.17;;;6.50;99.90;;;;;;5039244;28;20017;-74
2022/11/22 01:07:47;;;;;;;11.23;1.67;;;6.50;99.90;;;;;;5057236;28;20020;-74
2022/11/22 01:10:13;;;;;;;8.35;1.77;;;6.50;99.90;;;;;;5039242;28;20391;-74
2022/11/22 01:12:38;;;;;;;9.13;2.20;;;6.50;99.90;;;;;;5057138;28;20100;-74
2022/11/22 01:15:05;;;;;;;6.15;1.30;;;6.40;99.90;;;;;;5056981;28;20032;-74
2022/11/22 01:17:30;;;;;;;5.95;1.75;;;6.50;99.90;;;;;;5057118;28;20075;-74
2022/11/22 01:19:56;;;;;;;5.35;2.17;;;6.40;99.90;;;;;;5056613;28;20033;-74
2022/11/22 01:22:21;;;;;;;5.75;2.03;;;6.30;99.90;;;;;;5057302;28;20533;-74
2022/11/22 01:24:50;;;;;;;11.07;2.30;;;6.30;99.90;;;;;;5039368;28;20018;-74
2022/11/22 01:27:15;;;;;;;8.20;1.63;;;6.30;99.90;;;;;;5056940;28;20396;-74
2022/11/22 01:29:41;;;;;;;6.63;2.40;;;6.30;99.90;;;;;;5056761;28;20014;-74
2022/11/22 01:32:06;;;;;;;4.65;2.08;;;6.20;99.90;;;;;;5056569;28;20021;-74
2022/11/22 01:34:33;;;;;;;8.13;2.05;;;6.10;99.90;;;;;;5038861;28;20013;-74
2022/11/22 01:36:58;;;;;;;10.98;2.25;;;6.10;99.90;;;;;;5038742;28;20021;-74
2022/11/22 01:39:24;;;;;;;6.65;1.80;;;6.10;99.90;;;;;;5038781;28;20047;-74
2022/11/22 01:41:49;;;;;;;8.02;2.17;;;6.10;99.90;;;;;;5056373;28;20021;-74
2022/11/22 01:44:22;;;;;;;6.63;1.58;;;6.10;99.90;;;;;;5056388;28;20032;-74
2022/11/22 01:46:52;;;;;;;6.45;1.10;;;6.00;99.90;;;;;;5038572;28;20028;-74
2022/11/22 01:49:35;;;;;;;4.40;1.42;;;6.00;99.90;;;;;;5056405;28;20025;-74
2022/11/22 01:52:08;;;;;;;6.70;1.73;;;6.00;99.90;;;;;;5056877;28;20487;-74
2022/11/22 01:54:38;;;;;;;15.48;2.03;;;5.90;99.90;;;;;;5038286;28;20060;-74
2022/11/22 01:57:11;;;;;;;7.95;1.33;;;5.90;99.90;;;;;;5038390;28;20025;-74
2022/11/22 01:59:40;;;;;;;9.90;2.30;;;5.90;99.90;;;;;;5038137;28;20029;-74
2022/11/22 02:02:06;;;;;;;6.20;1.42;;;5.90;99.90;;;;;;5038248;28;20025;-74
2022/11/22 02:04:33;;;;;;;5.22;1.35;;;5.90;99.90;;;;;;5055987;28;20079;-74
2022/11/22 02:07:15;;;;;;;5.55;1.48;;;5.90;99.90;;;;;;5056232;28;20021;-74
2022/11/22 02:09:42;;;;;;;11.48;2.17;;;5.90;99.90;;;;;;5038167;28;20017;-74
2022/11/22 02:12:08;;;;;;;8.38;1.63;;;5.90;99.90;;;;;;5055990;28;20498;-74
2022/11/22 02:14:36;;;;;;;7.25;1.70;;;5.80;99.90;;;;;;5055883;28;20024;-74
2022/11/22 02:17:02;;;;;;;6.75;1.60;;;5.80;99.90;;;;;;5055877;28;20028;-74
2022/11/22 02:19:45;;;;;;;9.80;1.92;;;5.80;99.90;;;;;;5037751;28;20025;-74
2022/11/22 02:22:34;;;;;;;5.82;1.08;;;5.80;99.90;;;;;;5055800;28;20029;-74
2022/11/22 02:25:26;;;;;;;6.63;1.23;;;5.80;99.90;;;;;;5029844;28;20036;-74
2022/11/22 02:27:52;;;;;;;6.78;1.83;;;5.80;99.90;;;;;;5037939;28;20028;-74
2022/11/22 02:30:18;;;;;;;10.32;1.10;;;5.90;99.90;;;;;;5038015;28;20036;-74
2022/11/22 02:32:43;;;;;;;5.63;1.23;;;5.90;99.90;;;;;;5037652;28;20128;-74
2022/11/22 02:35:28;;;;;;;7.10;0.88;;;5.80;99.90;;;;;;5055867;28;20025;-74
2022/11/22 02:37:58;;;;;;;6.15;1.98;;;5.90;99.90;;;;;;5055746;28;20107;-74
2022/11/22 02:40:25;;;;;;;11.40;0.82;;;5.90;99.90;;;;;;5037583;28;20388;-74
2022/11/22 02:43:20;;;;;;;11.02;1.52;;;5.90;99.90;;;;;;5055339;28;20021;-74
2022/11/22 02:45:46;;;;;;;10.18;0.90;;;5.90;99.90;;;;;;5055262;28;20029;-74
2022/11/22 02:48:15;;;;;;;8.43;0.98;;;6.00;99.90;;;;;;5055216;28;20017;-74
2022/11/22 02:50:41;;;;;;;4.57;1.08;;;5.90;99.90;;;;;;5055341;28;20021;-74
2022/11/22 02:53:07;;;;;;;5.50;0.90;;;5.90;99.90;;;;;;5055693;28;20491;-74
2022/11/22 02:55:33;;;;;;;7.68;0.55;;;5.90;99.90;;;;;;5054891;28;20028;-74
2022/11/22 02:57:59;;;;;;;7.00;0.75;;;5.80;99.90;;;;;;5054976;28;20029;-74
2022/11/22 03:00:25;;;;;;;6.85;0.70;;;5.80;99.90;;;;;;5055525;28;20024;-74
2022/11/22 03:02:50;;;;;;;13.85;0.63;;;5.80;99.90;;;;;;5054950;28;20020;-74
2022/11/22 03:05:16;;;;;;;3.85;0.77;;;5.80;99.90;;;;;;5037136;28;20116;-74
2022/11/22 03:07:42;;;;;;;7.20;0.63;;;5.70;99.90;;;;;;5054986;28;20096;-74
2022/11/22 03:10:07;;;;;;;7.95;0.50;;;5.70;99.90;;;;;;5054792;28;20021;-74
2022/11/22 03:12:33;;;;;;;8.15;0.43;;;5.60;99.90;;;;;;5036866;28;20033;-74
2022/11/22 03:14:58;;;;;;;5.40;0.40;;;5.70;99.90;;;;;;5036251;28;20502;-74
2022/11/22 03:17:24;;;;;;;13.63;1.30;;;5.60;99.90;;;;;;5055256;28;20085;-74
2022/11/22 03:19:49;;;;;;;8.23;0.57;;;5.60;99.90;;;;;;5054783;28;20069;-74
2022/11/22 03:22:15;;;;;;;6.78;0.30;;;5.60;99.90;;;;;;5036997;28;20021;-74
2022/11/22 03:24:41;;;;;;;4.75;0.30;;;5.60;99.90;;;;;;5054428;28;20048;-74
2022/11/22 03:27:06;;;;;;;17.00;0.63;;;5.60;99.90;;;;;;5036668;28;20021;-74
2022/11/22 03:29:32;;;;;;;8.18;0.60;;;5.60;99.90;;;;;;5054669;28;20375;-74
2022/11/22 03:31:57;;;;;;;7.53;0.45;;;5.60;99.90;;;;;;5054287;28;20033;-74
2022/11/22 03:34:23;;;;;;;9.70;0.40;;;5.60;99.90;;;;;;5054303;28;20023;-74
2022/11/22 03:36:48;;;;;;;11.85;0.47;;;5.50;99.90;;;;;;5054298;28;20035;-74
2022/11/22 03:39:14;;;;;;;12.02;1.77;;;5.50;99.90;;;;;;5054151;28;20033;-74
2022/11/22 03:41:39;;;;;;;7.57;0.30;;;5.50;99.90;;;;;;5054032;28;20033;-74
2022/11/22 03:44:05;;;;;;;6.03;0.65;;;5.40;99.90;;;;;;5036450;28;20391;-75
2022/11/22 03:46:31;;;;;;;10.98;0.60;;;5.40;99.90;;;;;;5053907;28;20040;-74
2022/11/22 03:48:57;;;;;;;14.70;0.90;;;5.40;99.90;;;;;;5036156;28;20017;-74
2022/11/22 03:51:22;;;;;;;6.85;1.60;;;5.40;99.90;;;;;;5054150;28;20392;-74
2022/11/22 03:53:48;;;;;;;13.18;1.40;;;5.30;99.90;;;;;;5053921;28;20032;-74
2022/11/22 03:56:13;;;;;;;7.47;0.50;;;5.30;99.90;;;;;;5036135;28;20504;-74
2022/11/22 03:58:39;;;;;;;5.03;0.63;;;5.30;99.90;;;;;;5036191;28;20028;-74
2022/11/22 04:01:05;;;;;;;14.73;1.08;;;5.30;99.90;;;;;;5053984;28;20387;-74
2022/11/22 04:03:30;;;;;;;3.30;0.10;;;5.30;99.90;;;;;;5054637;28;20017;-75
2022/11/22 04:05:56;;;;;;;6.72;0.68;;;5.20;99.90;;;;;;5054050;28;20021;-74
2022/11/22 04:08:21;;;;;;;8.82;1.08;;;5.30;99.90;;;;;;5036068;28;20028;-74
2022/11/22 04:10:48;;;;;;;9.68;1.52;;;5.30;99.90;;;;;;5035768;28;20025;-74
2022/11/22 04:13:14;;;;;;;9.52;0.98;;;5.40;99.90;;;;;;5053610;28;20035;-74
2022/11/22 04:15:39;;;;;;;7.55;0.50;;;5.40;99.90;;;;;;5035684;28;20029;-74
2022/11/22 04:18:11;;;;;;;5.13;0.60;;;5.30;99.90;;;;;;5035733;28;20028;-74
2022/11/22 04:23:23;;;;;;;9.25;0.43;;;5.20;99.90;;;;;;5053750;28;20059;-74
2022/11/22 04:25:51;;;;;;;19.48;1.15;;;5.10;99.90;;;;;;5035449;28;20036;-74
2022/11/22 04:28:19;;;;;;;11.88;0.50;;;5.10;99.90;;;;;;5034829;28;20017;-74
2022/11/22 04:33:29;;;;;;;10.52;0.25;;;5.00;99.90;;;;;;5053717;28;20039;-75
2022/11/22 04:35:55;;;;;;;10.23;0.52;;;5.00;99.90;;;;;;5053839;28;20029;-75
2022/11/22 04:38:21;;;;;;;8.02;0.28;;;5.00;99.90;;;;;;5053382;28;20025;-74
2022/11/22 04:40:47;;;;;;;8.50;0.25;;;5.00;99.90;;;;;;5053188;28;20024;-74
2022/11/22 04:46:13;;;;;;;7.22;0.10;;;5.00;99.90;;;;;;5053427;28;20463;-74
2022/11/22 04:48:39;;;;;;;8.45;0.60;;;4.90;99.90;;;;;;5035235;28;20025;-74
2022/11/22 04:53:50;;;;;;;12.80;0.93;;;4.90;99.90;;;;;;5054039;28;20071;-76
2022/11/22 04:56:15;;;;;;;3.90;0.25;;;4.90;99.90;;;;;;5053061;28;20025;-74
2022/11/22 04:58:41;;;;;;;9.90;0.45;;;4.90;99.90;;;;;;5053239;28;20029;-74
2022/11/22 05:01:07;;;;;;;7.95;0.85;;;4.80;99.90;;;;;;5035252;28;20510;-75
2022/11/22 05:03:32;;;;;;;11.90;0.88;;;4.90;99.90;;;;;;5053681;28;20384;-75
2022/11/22 05:06:03;;;;;;;11.98;0.65;;;4.80;99.90;;;;;;5052951;28;20021;-74
2022/11/22 05:08:29;;;;;;;11.13;0.77;;;4.80;99.90;;;;;;5035117;28;20032;-74
2022/11/22 05:10:55;;;;;;;13.65;0.60;;;4.80;99.90;;;;;;5052791;28;20112;-74
2022/11/22 05:13:27;;;;;;;4.75;0.38;;;4.80;99.90;;;;;;5035125;28;20116;-74
2022/11/22 05:15:53;;;;;;;7.25;0.17;;;4.80;99.90;;;;;;5052920;28;20028;-74
2022/11/22 05:18:20;;;;;;;11.43;0.28;;;4.80;99.90;;;;;;5035135;28;20040;-74
2022/11/22 05:20:46;;;;;;;10.00;0.60;;;4.80;99.90;;;;;;5052792;28;20475;-74
2022/11/22 05:25:56;;;;;;;3.83;0.10;;;4.70;99.90;;;;;;5053303;28;20502;-74
2022/11/22 05:28:22;;;;;;;3.03;0.10;;;4.70;99.90;;;;;;5052886;28;20021;-74
2022/11/22 05:30:47;;;;;;;9.98;0.20;;;4.70;99.90;;;;;;5052801;28;20507;-74
2022/11/22 05:33:13;;;;;;;9.25;0.80;;;4.70;99.90;;;;;;5035016;28;20025;-74
2022/11/22 05:35:39;;;;;;;4.05;0.35;;;4.70;99.90;;;;;;5052596;28;20032;-74
2022/11/22 05:38:05;;;;;;;14.15;1.17;;;4.70;99.90;;;;;;5052900;28;20112;-75
2022/11/22 05:40:33;;;;;;;3.25;0.10;;;4.70;99.90;;;;;;5038588;28;20160;-74
2022/11/22 05:42:59;;;;;;;5.93;0.10;;;4.50;99.90;;;;;;5056425;28;20472;-74
2022/11/22 05:45:24;;;;;;;5.22;0.35;;;4.70;99.90;;;;;;5056547;28;20028;-74
2022/11/22 05:47:50;;;;;;;3.40;0.45;;;4.60;99.90;;;;;;5056487;28;20025;-74
2022/11/22 05:50:16;;;;;;;6.97;0.30;;;4.60;99.90;;;;;;5056259;28;20427;-74
2022/11/22 05:52:41;;;;;;;7.25;0.47;;;4.70;99.90;;;;;;5038389;28;20052;-74
2022/11/22 05:55:07;;;;;;;7.20;0.52;;;4.80;99.90;;;;;;5038324;28;20487;-74
2022/11/22 05:57:32;;;;;;;8.15;0.22;;;4.80;99.90;;;;;;5038281;28;20089;-74
2022/11/22 05:59:58;;;;;;;1.92;0.20;;;4.90;99.90;;;;;;5056084;28;20491;-74
2022/11/22 06:02:24;;;;;;;4.65;0.10;;;4.80;99.90;;;;;;5038339;28;20430;-74
2022/11/22 06:04:50;;;;;;;4.10;0.20;;;4.90;99.90;;;;;;5038120;28;20025;-74
2022/11/22 06:07:15;;;;;;;6.75;1.50;;;5.00;99.90;;;;;;5055987;28;20032;-74
2022/11/22 06:09:41;;;;;;;9.80;0.45;;;5.00;99.90;;;;;;5038625;28;20020;-74
2022/11/22 06:12:07;;;;;;;4.60;0.30;;;5.00;99.90;;;;;;5055928;28;20028;-74
2022/11/22 06:14:32;;;;;;;5.85;0.35;;;5.10;99.90;;;;;;5055706;28;20025;-74
2022/11/22 06:16:58;;;;;;;8.68;1.13;;;5.10;99.90;;;;;;5038239;28;20078;-74
2022/11/22 06:19:23;;;;;;;8.02;0.32;;;5.60;99.90;;;;;;5055674;28;20044;-74
2022/11/22 06:21:49;;;;;;;9.82;0.38;;;5.10;99.90;;;;;;5056275;28;20527;-74
2022/11/22 06:24:14;;;;;;;9.18;0.75;;;5.10;99.90;;;;;;5055738;28;20040;-74
2022/11/22 06:26:40;;;;;;;3.78;0.22;;;5.10;99.90;;;;;;5055635;28;20027;-74
2022/11/22 06:29:06;;;;;;;2.80;0.60;;;5.10;99.90;;;;;;5055545;28;20104;-74
2022/11/22 06:31:31;;;;;;;8.30;0.73;;;5.10;99.90;;;;;;5055583;28;20036;-74
2022/11/22 06:33:58;;;;;;;3.78;0.10;;;5.10;99.90;;;;;;5037659;28;20024;-74
2022/11/22 06:36:26;;;;;;;6.97;0.73;;;5.10;99.90;;;;;;5055404;28;20061;-74
2022/11/22 06:38:53;;;;;;;8.10;0.30;;;5.10;99.90;;;;;;5055535;28;20028;-74
2022/11/22 06:41:23;;;;;;;7.57;0.88;;;5.10;99.90;;;;;;5055320;28;20798;-74
2022/11/22 06:43:51;;;;;;;6.63;0.57;;;5.10;99.90;;;;;;5055337;28;20051;-75
2022/11/22 06:46:18;;;;;;;10.18;0.73;;;5.10;99.90;;;;;;5037258;28;20021;-76
2022/11/22 06:48:44;;;;;;;6.57;0.20;;;5.10;99.90;;;;;;5055374;28;20435;-75
2022/11/22 06:51:10;;;;;;;10.18;0.63;;;5.20;99.90;;;;;;5036310;28;20025;-75
2022/11/22 06:53:36;;;;;;;5.32;0.32;;;5.20;99.90;;;;;;5055142;28;20036;-74
2022/11/22 06:56:07;;;;;;;6.53;0.60;;;5.20;99.90;;;;;;5055089;28;20033;-74
2022/11/22 06:58:34;;;;;;;12.45;0.75;;;5.20;99.90;;;;;;5055137;28;20507;-75
2022/11/22 07:01:07;;;;;;;2.67;0.38;;;5.20;99.90;;;;;;5037016;28;20021;-75
2022/11/22 07:03:39;;;;;;;4.57;0.43;;;5.20;99.90;;;;;;5037247;28;20412;-74
2022/11/22 07:06:07;;;;;;;5.65;0.28;;;5.20;99.90;;;;;;5037144;28;20037;-74
2022/11/22 07:08:33;;;;;;;8.35;0.50;;;5.20;99.90;;;;;;5054952;28;20112;-74
2022/11/22 07:11:09;;;;;;;8.18;0.38;;;5.30;99.90;;;;;;5055416;28;20025;-74
2022/11/22 07:13:35;;;;;;;10.60;0.95;;;5.20;99.90;;;;;;5036925;28;20056;-74
2022/11/22 07:16:03;;;;;;;5.88;0.55;;;5.20;99.90;;;;;;5054642;28;20057;-74
2022/11/22 07:18:29;;;;;;;3.78;0.43;;;5.20;99.90;;;;;;5036670;28;20113;-74
2022/11/22 07:21:07;;;;;;;4.05;0.68;;;5.10;99.90;;;;;;5054657;28;20115;-75
2022/11/22 07:23:32;;;;;;;5.55;0.20;;;5.10;99.90;;;;;;5055141;28;20070;-75
2022/11/22 07:25:58;;;;;;;4.95;0.50;;;5.10;99.90;;;;;;5054487;28;20120;-75
2022/11/22 07:28:24;;;;;;;6.25;0.10;;;5.10;99.90;;;;;;5036456;28;20029;-75
2022/11/22 07:30:50;;;;;;;4.40;0.43;;;5.10;99.90;;;;;;5036522;28;20579;-75
2022/11/22 07:33:15;;;;;;;4.50;0.10;;;5.20;99.90;;;;;;5054911;28;20101;-75
2022/11/22 07:35:41;;;;;;;9.60;0.30;;;5.20;99.90;;;;;;5054231;28;20024;-75
2022/11/22 07:38:07;;;;;;;5.85;0.10;;;5.20;99.90;;;;;;5054922;28;20036;-74
2022/11/22 07:40:32;;;;;;;1.83;0.40;;;5.20;99.90;;;;;;5036469;28;20086;-74
2022/11/22 07:42:58;;;;;;;3.92;0.20;;;5.20;99.90;;;;;;5054623;28;20480;-74
2022/11/22 07:45:24;;;;;;;7.25;1.27;;;5.30;99.90;;;;;;5054115;28;20054;-75
2022/11/22 07:47:53;;;;;;;3.92;0.40;;;5.30;99.90;;;;;;5054182;28;20033;-75
2022/11/22 07:50:18;;;;;;;5.75;0.52;;;5.20;99.90;;;;;;5054189;28;20029;-74
2022/11/22 07:52:44;;;;;;;6.70;0.38;;;5.20;99.90;;;;;;5054046;28;20075;-75
2022/11/22 07:55:10;;;;;;;11.32;0.77;;;5.30;99.90;;;;;;5036238;28;20025;-75
2022/11/22 07:57:36;;;;;;;5.53;0.95;;;5.20;99.90;;;;;;5036153;28;20021;-75
2022/11/22 08:00:03;;;;;;;2.78;0.20;;;5.20;99.90;;;;;;5036191;28;20021;-75
2022/11/22 08:02:28;;;;;;;5.00;0.68;;;5.30;99.90;;;;;;5053827;28;20017;-75
2022/11/22 08:04:54;;;;;;;2.63;0.30;;;;;;;;;;5053696;28;20055;-75
2022/11/22 08:07:20;;;;;;;9.23;0.98;;;5.30;99.90;;;;;;5053764;28;20384;-75
2022/11/22 08:09:45;;;;;;;6.13;0.52;;;5.40;99.90;;;;;;5053743;28;20379;-75
2022/11/22 08:12:11;;;;;;;7.97;0.90;;;5.40;99.90;;;;;;5053701;28;20029;-75
2022/11/22 08:14:36;;;;;;;8.52;1.38;;;5.50;99.90;;;;;;5053685;28;20414;-74
2022/11/22 08:17:02;;;;;;;11.70;1.25;;;5.50;99.90;;;;;;5035875;28;20047;-75
2022/11/22 08:19:29;;;;;;;6.18;0.20;;;5.50;99.90;;;;;;5053507;28;20136;-74
2022/11/22 08:21:55;;;;;;;3.15;0.45;;;5.50;99.90;;;;;;5035586;28;20033;-75
2022/11/22 08:24:20;;;;;;;4.13;0.45;;;5.50;99.90;;;;;;5035920;28;20569;-75
2022/11/22 08:26:46;;;;;;;4.10;0.65;;;5.50;99.90;;;;;;5053697;28;20025;-74
2022/11/22 08:29:12;;;;;;;7.10;0.57;;;5.60;99.90;;;;;;5035623;28;20361;-75
2022/11/22 08:31:38;;;;;;;7.43;0.93;;;5.60;99.90;;;;;;5053991;28;20029;-75
2022/11/22 08:34:05;;;;;;;8.93;0.55;;;5.60;99.90;;;;;;5053559;28;20021;-75
2022/11/22 08:36:31;;;;;;;4.93;0.88;;;5.70;99.90;;;;;;5053521;28;20035;-75
2022/11/22 08:38:56;;;;;;;4.07;0.13;;;5.70;99.90;;;;;;5035495;28;20017;-74
2022/11/22 08:41:22;;;;;;;6.22;0.82;;;5.70;99.90;;;;;;5035453;28;20175;-74
2022/11/22 08:43:49;;;;;;;5.25;0.80;;;5.80;99.90;;;;;;5053789;28;20017;-74
2022/11/22 08:46:15;;;;;;;3.30;0.50;;;5.80;99.90;;;;;;5053375;28;20028;-74
2022/11/22 08:48:41;;;;;;;5.90;0.55;;;5.80;99.90;;;;;;5035471;28;20112;-74
2022/11/22 08:51:09;;;;;;;7.60;0.85;;;5.80;99.90;;;;;;5035130;28;20067;-74
2022/11/22 08:53:37;;;;;;;5.40;0.77;;;5.80;99.90;;;;;;5035330;28;20029;-75
2022/11/22 08:56:05;;;;;;;6.38;0.40;;;5.90;99.90;;;;;;5035260;28;20506;-74
2022/11/22 08:58:32;;;;;;;4.72;0.35;;;5.90;99.90;;;;;;5053389;28;20448;-74
2022/11/22 09:01:09;;;;;;;4.70;1.10;;;5.90;99.90;;;;;;5053101;28;20032;-74
2022/11/22 09:03:35;;;;;;;6.30;0.43;;;5.90;99.90;;;;;;5035131;28;20128;-74
2022/11/22 09:06:05;;;;;;;4.93;0.30;;;5.90;99.90;;;;;;5035241;28;20541;-74
2022/11/22 09:08:32;;;;;;;6.32;0.47;;;5.80;99.90;;;;;;5035052;28;20044;-74
2022/11/22 09:11:02;;;;;;;5.72;0.50;;;5.90;99.90;;;;;;5052991;28;20032;-74
2022/11/22 09:13:29;;;;;;;5.07;0.70;;;5.90;99.90;;;;;;5053903;28;20112;-74
2022/11/22 09:15:54;;;;;;;5.70;0.28;;;5.90;99.90;;;;;;5039113;28;20079;-74
2022/11/22 09:18:20;;;;;;;2.92;0.45;;;5.90;99.90;;;;;;5057235;28;20045;-75
2022/11/22 09:20:46;;;;;;;14.32;2.30;;;6.00;99.90;;;;;;5057833;28;20041;-74
2022/11/22 09:23:11;;;;;;;11.90;0.40;;;6.00;99.90;;;;;;5056894;28;20476;-74
2022/11/22 09:25:37;;;;;;;3.28;0.40;;;6.10;99.90;;;;;;5039034;28;20116;-75
2022/11/22 09:28:02;;;;;;;5.20;0.52;;;6.10;99.90;;;;;;5038762;28;20025;-75
2022/11/22 09:30:29;;;;;;;3.50;0.55;;;6.00;99.90;;;;;;5057281;28;20036;-75
2022/11/22 09:32:55;;;;;;;3.67;0.20;;;6.10;99.90;;;;;;5056853;28;20492;-75
2022/11/22 09:35:20;;;;;;;5.47;1.02;;;6.10;99.90;;;;;;5056603;28;20118;-75
2022/11/22 09:37:46;;;;;;;1.33;0.13;;;6.10;99.90;;;;;;5056655;28;20021;-75
2022/11/22 09:40:13;;;;;;;8.38;0.63;;;6.20;99.90;;;;;;5056486;28;20072;-75
2022/11/22 09:42:51;;;;;;;2.30;0.10;;;6.20;99.90;;;;;;5038619;28;20025;-75
2022/11/22 09:45:28;;;;;;;4.35;0.75;;;6.30;99.90;;;;;;5038605;28;20021;-75
2022/11/22 09:48:16;;;;;;;2.25;0.75;;;6.40;99.90;;;;;;5057053;28;20052;-75
2022/11/22 09:50:55;;;;;;;1.50;0.10;;;6.40;99.90;;;;;;5057118;28;20104;-75
2022/11/22 09:53:33;;;;;;;9.90;1.05;;;6.40;99.90;;;;;;5056942;28;20025;-75
2022/11/22 09:56:04;;;;;;;8.68;0.65;;;6.40;99.90;;;;;;5038315;28;20099;-75
2022/11/22 09:58:56;;;;;;;5.55;0.30;;;6.50;99.90;;;;;;5056202;28;20033;-75
2022/11/22 10:01:32;;;;;;;7.60;1.00;;;6.50;99.90;;;;;;5056755;28;20025;-75
2022/11/22 10:04:07;;;;;;;4.97;0.25;;;6.50;99.90;;;;;;5056672;28;20025;-74
2022/11/22 10:06:37;;;;;;;6.90;0.50;;;6.60;99.90;;;;;;5056141;28;20025;-75
2022/11/22 10:09:17;;;;;;;5.55;0.73;;;6.60;99.90;;;;;;5056094;28;20021;-75
2022/11/22 10:11:45;;;;;;;6.43;0.32;;;6.60;99.90;;;;;;5056261;28;20072;-75
2022/11/22 10:14:36;;;;;;;2.38;0.30;;;6.60;99.90;;;;;;5056521;28;20499;-75
2022/11/22 10:17:27;;;;;;;3.90;0.20;;;6.60;99.90;;;;;;5037993;28;20496;-75
2022/11/22 10:20:05;;;;;;;7.53;0.52;;;6.60;99.90;;;;;;5056054;28;20512;-75
2022/11/22 10:22:32;;;;;;;4.10;0.35;;;6.60;99.90;;;;;;5055745;28;20017;-75
2022/11/22 10:24:59;;;;;;;5.00;0.15;;;6.60;99.90;;;;;;5054486;28;20473;-75
2022/11/22 10:27:31;;;;;;;8.18;1.00;;;6.60;99.90;;;;;;5055752;28;20051;-75
2022/11/22 10:30:12;;;;;;;2.28;0.10;;;6.60;99.90;;;;;;5056109;28;20021;-75
2022/11/22 10:33:20;;;;;;;5.10;0.93;;;6.60;99.90;;;;;;5037716;28;20021;-75
2022/11/22 10:36:16;;;;;;;4.22;0.30;;;6.60;99.90;;;;;;5009220;28;20483;-75
2022/11/22 10:39:00;;;;;;;5.55;0.10;;;6.60;99.90;;;;;;5037719;28;20021;-75
2022/11/22 10:41:30;;;;;;;2.10;0.30;;;6.60;99.90;;;;;;5055388;28;20017;-75
2022/11/22 10:44:04;;;;;;;1.38;0.10;;;6.60;99.90;;;;;;5055308;28;20025;-75
2022/11/22 10:46:53;;;;;;;6.80;0.28;;;6.60;99.90;;;;;;5055814;28;20464;-75
2022/11/22 10:49:56;;;;;;;5.95;0.30;;;6.60;99.90;;;;;;5055358;28;20021;-75
2022/11/22 10:52:47;;;;;;;5.95;0.80;;;6.70;99.90;;;;;;5055184;28;20025;-75
2022/11/22 10:55:38;;;;;;;3.60;0.20;;;6.70;99.90;;;;;;5055207;28;20507;-75
2022/11/22 10:58:13;;;;;;;6.28;0.52;;;6.80;99.90;;;;;;5046093;28;20125;-75
2022/11/22 11:00:43;;;;;;;9.18;0.30;;;6.80;99.90;;;;;;5055018;28;20538;-75
2022/11/22 11:03:31;;;;;;;2.22;0.35;;;6.80;99.90;;;;;;5037090;28;20025;-75
2022/11/22 11:06:22;;;;;;;3.85;0.17;;;6.80;99.90;;;;;;5037258;28;20031;-75
2022/11/22 11:09:03;;;;;;;2.92;0.30;;;6.80;99.90;;;;;;5037083;28;20017;-75
2022/11/22 11:11:29;;;;;;;5.07;0.20;;;6.80;99.90;;;;;;5054956;28;20114;-75
2022/11/22 11:14:15;;;;;;;3.67;0.20;;;6.80;99.90;;;;;;5054885;28;20089;-75
2022/11/22 11:16:41;;;;;;;2.95;0.17;;;6.80;99.90;;;;;;5054774;28;20017;-75
2022/11/22 11:19:17;;;;;;;5.78;0.10;;;6.80;99.90;;;;;;5054701;28;20051;-75
2022/11/22 11:21:42;;;;;;;2.92;0.30;;;6.80;99.90;;;;;;5036652;28;20032;-75
2022/11/22 11:24:13;;;;;;;6.60;0.20;;;6.80;99.90;;;;;;5054631;28;20025;-75
2022/11/22 11:26:40;;;;;;;2.88;0.20;;;6.80;99.90;;;;;;5054436;28;20032;-75
2022/11/22 11:29:15;;;;;;;8.80;0.13;;;6.90;99.90;;;;;;5054438;28;20017;-75
2022/11/22 11:31:47;;;;;;;2.95;0.25;;;6.90;99.90;;;;;;5055262;28;20028;-75
2022/11/22 11:34:20;;;;;;;4.32;0.30;;;7.00;99.90;;;;;;5036621;28;20028;-75
2022/11/22 11:36:47;;;;;;;1.13;0.00;;;7.00;99.90;;;;;;5054070;28;20083;-75
2022/11/22 11:39:27;;;;;;;3.65;0.60;;;7.10;99.90;;;;;;5054478;28;20031;-75
2022/11/22 11:41:53;;;;;;;3.28;0.10;;;7.10;99.90;;;;;;5054348;28;20029;-75
2022/11/22 11:44:30;;;;;;;3.22;0.25;;;7.10;99.90;;;;;;5054125;28;20029;-75
2022/11/22 11:46:57;;;;;;;5.57;0.13;;;7.10;99.90;;;;;;5054649;28;20507;-75
2022/11/22 11:49:28;;;;;;;4.90;0.40;;;7.10;99.90;;;;;;5054335;28;20479;-75
2022/11/22 11:51:58;;;;;;;3.40;0.50;;;7.10;99.90;;;;;;5036429;28;20074;-75
2022/11/22 11:54:44;;;;;;;1.80;0.50;;;7.00;99.90;;;;;;5054781;28;20025;-74
2022/11/22 11:57:13;;;;;;;2.85;0.40;;;7.00;99.90;;;;;;5054198;28;20057;-74
2022/11/22 11:59:38;;;;;;;1.73;0.00;;;7.10;99.90;;;;;;5054092;28;20025;-74
2022/11/22 12:02:16;;;;;;;4.90;0.52;;;7.10;99.90;;;;;;5054188;28;20029;-74
2022/11/22 12:04:50;;;;;;;3.83;0.10;;;7.00;99.90;;;;;;5054474;28;20484;-74
2022/11/22 12:07:26;;;;;;;3.78;0.55;;;7.10;99.90;;;;;;5053982;28;20032;-74
2022/11/22 12:09:54;;;;;;;3.08;0.30;;;7.10;99.90;;;;;;5036064;28;20048;-74
2022/11/22 12:12:48;;;;;;;2.05;0.00;;;7.10;99.90;;;;;;5054665;28;20029;-74
2022/11/22 12:15:20;;;;;;;3.13;0.03;;;7.20;99.90;;;;;;5054202;28;20029;-74
2022/11/22 12:18:11;;;;;;;4.40;0.05;;;7.20;99.90;;;;;;5036207;28;20078;-74
2022/11/22 12:21:02;;;;;;;1.58;0.00;;;7.20;99.90;;;;;;5062843;22;20040;-74
2022/11/22 12:23:53;;;;;;;5.38;0.47;;;7.20;99.90;;;;;;5036305;28;20025;-73
2022/11/22 12:26:19;;;;;;;2.78;0.10;;;7.20;99.90;;;;;;5053798;28;20070;-73
2022/11/22 12:28:46;;;;;;;2.25;0.10;;;7.20;99.90;;;;;;5053753;28;20025;-73
2022/11/22 12:31:41;;;;;;;1.27;0.00;;;7.20;99.90;;;;;;5053613;28;20086;-73
2022/11/22 12:34:18;;;;;;;1.75;0.10;;;7.20;99.90;;;;;;5053570;28;20021;-73
2022/11/22 12:36:52;;;;;;;0.10;0.00;;;7.30;99.90;;;;;;5035635;28;20060;-73
2022/11/22 12:39:23;;;;;;;1.23;0.10;;;7.20;99.90;;;;;;5053580;28;20388;-73
2022/11/22 12:41:54;;;;;;;2.38;0.32;;;7.30;99.90;;;;;;5053743;28;20032;-74
2022/11/22 12:44:20;;;;;;;3.28;0.47;;;7.40;99.90;;;;;;5054065;28;20021;-74
2022/11/22 12:46:51;;;;;;;1.67;0.30;;;7.30;99.90;;;;;;5053418;28;20399;-74
2022/11/22 12:49:46;;;;;;;1.10;0.00;;;7.40;99.90;;;;;;5034935;28;20094;-74
2022/11/22 12:52:29;;;;;;;2.00;0.00;;;7.40;99.90;;;;;;5050723;28;20044;-74
2022/11/22 12:55:01;;;;;;;0.50;0.28;;;7.40;99.90;;;;;;5035374;28;20021;-74
2022/11/22 12:57:58;;;;;;;2.17;0.00;;;7.40;99.90;;;;;;5053354;28;20114;-74
2022/11/22 13:00:28;;;;;;;0.10;0.00;;;7.40;99.90;;;;;;5053155;28;20036;-74
2022/11/22 13:03:19;;;;;;;0.68;0.03;;;7.40;99.90;;;;;;5035393;28;20025;-74
2022/11/22 13:05:55;;;;;;;2.38;0.17;;;7.50;99.90;;;;;;5053902;28;20072;-73
2022/11/22 13:08:39;;;;;;;2.20;0.10;;;7.50;99.90;;;;;;5053543;28;20086;-73
2022/11/22 13:11:15;;;;;;;2.45;0.10;;;7.60;99.90;;;;;;5053225;28;20021;-73
2022/11/22 13:13:47;;;;;;;1.05;0.00;;;7.70;99.90;;;;;;5053739;28;20388;-73
2022/11/22 13:16:13;;;;;;;1.38;0.10;;;7.70;99.90;;;;;;5035178;28;20021;-73
2022/11/22 13:18:47;;;;;;;3.30;0.00;;;7.70;99.90;;;;;;5053226;28;20099;-73
2022/11/22 13:21:43;;;;;;;0.25;0.05;;;7.80;99.90;;;;;;5035420;28;20025;-74
2022/11/22 13:24:40;;;;;;;0.90;0.08;;;7.80;99.90;;;;;;5053058;28;20388;-73